sensor_id;sensor_type;location;lat;lon;timestamp;P1;durP1;ratioP1;P2;durP2;ratioP2
57567;SDS011;43403;51.948;5.922;2023-04-03T00:00:17;4.10;;;1.50;;
57567;SDS011;43403;51.948;5.922;2023-04-03T00:02:44;5.70;;;1.30;;
57567;SDS011;43403;51.948;5.922;2023-04-03T00:05:10;3.90;;;1.60;;
57567;SDS011;43403;51.948;5.922;2023-04-03T00:07:37;5.53;;;1.42;;
57567;SDS011;43403;51.948;5.922;2023-04-03T00:10:03;2.75;;;1.35;;
57567;SDS011;43403;51.948;5.922;2023-04-03T00:12:30;2.92;;;1.60;;
57567;SDS011;43403;51.948;5.922;2023-04-03T00:14:56;5.32;;;1.58;;
57567;SDS011;43403;51.948;5.922;2023-04-03T00:17:22;4.32;;;1.42;;
57567;SDS011;43403;51.948;5.922;2023-04-03T00:19:49;5.75;;;1.80;;
57567;SDS011;43403;51.948;5.922;2023-04-03T00:22:15;2.63;;;1.23;;
57567;SDS011;43403;51.948;5.922;2023-04-03T00:24:41;3.35;;;1.45;;
57567;SDS011;43403;51.948;5.922;2023-04-03T00:27:08;4.03;;;1.50;;
57567;SDS011;43403;51.948;5.922;2023-04-03T00:29:34;7.10;;;1.92;;
57567;SDS011;43403;51.948;5.922;2023-04-03T00:32:00;5.05;;;1.40;;
57567;SDS011;43403;51.948;5.922;2023-04-03T00:34:28;4.78;;;1.60;;
57567;SDS011;43403;51.948;5.922;2023-04-03T00:36:54;2.55;;;1.50;;
57567;SDS011;43403;51.948;5.922;2023-04-03T00:39:21;3.22;;;1.15;;
57567;SDS011;43403;51.948;5.922;2023-04-03T00:41:47;4.28;;;1.50;;
57567;SDS011;43403;51.948;5.922;2023-04-03T00:44:20;4.50;;;1.55;;
57567;SDS011;43403;51.948;5.922;2023-04-03T00:46:47;4.03;;;1.92;;
57567;SDS011;43403;51.948;5.922;2023-04-03T00:49:14;4.13;;;1.67;;
57567;SDS011;43403;51.948;5.922;2023-04-03T00:51:40;5.50;;;1.80;;
57567;SDS011;43403;51.948;5.922;2023-04-03T00:54:07;2.75;;;1.52;;
57567;SDS011;43403;51.948;5.922;2023-04-03T00:56:34;2.78;;;1.42;;
57567;SDS011;43403;51.948;5.922;2023-04-03T00:59:08;5.47;;;1.60;;
57567;SDS011;43403;51.948;5.922;2023-04-03T01:01:36;3.70;;;1.60;;
57567;SDS011;43403;51.948;5.922;2023-04-03T01:04:03;4.22;;;1.52;;
57567;SDS011;43403;51.948;5.922;2023-04-03T01:06:36;5.03;;;1.60;;
57567;SDS011;43403;51.948;5.922;2023-04-03T01:09:03;3.47;;;1.70;;
57567;SDS011;43403;51.948;5.922;2023-04-03T01:11:30;3.30;;;1.50;;
57567;SDS011;43403;51.948;5.922;2023-04-03T01:13:57;5.28;;;1.52;;
57567;SDS011;43403;51.948;5.922;2023-04-03T01:16:23;3.90;;;1.40;;
57567;SDS011;43403;51.948;5.922;2023-04-03T01:18:50;4.07;;;1.67;;
57567;SDS011;43403;51.948;5.922;2023-04-03T01:26:27;2.80;;;1.50;;
57567;SDS011;43403;51.948;5.922;2023-04-03T01:28:54;4.30;;;1.63;;
57567;SDS011;43403;51.948;5.922;2023-04-03T01:31:25;4.88;;;1.50;;
57567;SDS011;43403;51.948;5.922;2023-04-03T01:33:53;3.78;;;1.38;;
57567;SDS011;43403;51.948;5.922;2023-04-03T01:36:24;2.83;;;1.55;;
57567;SDS011;43403;51.948;5.922;2023-04-03T01:38:50;5.93;;;1.48;;
57567;SDS011;43403;51.948;5.922;2023-04-03T01:41:17;4.88;;;1.65;;
57567;SDS011;43403;51.948;5.922;2023-04-03T01:46:19;4.95;;;1.90;;
57567;SDS011;43403;51.948;5.922;2023-04-03T01:48:46;4.18;;;1.60;;
57567;SDS011;43403;51.948;5.922;2023-04-03T01:51:13;4.22;;;1.42;;
57567;SDS011;43403;51.948;5.922;2023-04-03T01:53:39;4.63;;;1.50;;
57567;SDS011;43403;51.948;5.922;2023-04-03T01:56:06;4.65;;;1.60;;
57567;SDS011;43403;51.948;5.922;2023-04-03T01:58:32;6.13;;;1.65;;
57567;SDS011;43403;51.948;5.922;2023-04-03T02:00:58;4.72;;;1.63;;
57567;SDS011;43403;51.948;5.922;2023-04-03T02:03:25;6.22;;;1.77;;
57567;SDS011;43403;51.948;5.922;2023-04-03T02:05:52;3.17;;;1.45;;
57567;SDS011;43403;51.948;5.922;2023-04-03T02:08:18;5.63;;;1.67;;
57567;SDS011;43403;51.948;5.922;2023-04-03T02:10:48;5.20;;;1.58;;
57567;SDS011;43403;51.948;5.922;2023-04-03T02:13:15;5.40;;;1.85;;
57567;SDS011;43403;51.948;5.922;2023-04-03T02:15:41;3.80;;;1.60;;
57567;SDS011;43403;51.948;5.922;2023-04-03T02:18:08;4.43;;;1.48;;
57567;SDS011;43403;51.948;5.922;2023-04-03T02:20:34;4.28;;;1.70;;
57567;SDS011;43403;51.948;5.922;2023-04-03T02:23:01;5.53;;;1.55;;
57567;SDS011;43403;51.948;5.922;2023-04-03T02:25:29;3.78;;;1.80;;
57567;SDS011;43403;51.948;5.922;2023-04-03T02:27:56;5.10;;;1.63;;
57567;SDS011;43403;51.948;5.922;2023-04-03T02:30:22;3.58;;;1.50;;
57567;SDS011;43403;51.948;5.922;2023-04-03T02:32:48;2.83;;;1.42;;
57567;SDS011;43403;51.948;5.922;2023-04-03T02:35:15;4.28;;;1.98;;
57567;SDS011;43403;51.948;5.922;2023-04-03T02:37:42;5.90;;;2.10;;
57567;SDS011;43403;51.948;5.922;2023-04-03T02:40:08;8.93;;;2.08;;
57567;SDS011;43403;51.948;5.922;2023-04-03T02:42:35;6.07;;;1.60;;
57567;SDS011;43403;51.948;5.922;2023-04-03T02:45:01;3.55;;;1.50;;
57567;SDS011;43403;51.948;5.922;2023-04-03T02:47:27;6.72;;;1.50;;
57567;SDS011;43403;51.948;5.922;2023-04-03T02:49:54;6.57;;;1.73;;
57567;SDS011;43403;51.948;5.922;2023-04-03T02:52:20;4.30;;;1.70;;
57567;SDS011;43403;51.948;5.922;2023-04-03T02:54:47;3.45;;;1.58;;
57567;SDS011;43403;51.948;5.922;2023-04-03T02:57:13;3.40;;;1.70;;
57567;SDS011;43403;51.948;5.922;2023-04-03T02:59:39;5.28;;;1.80;;
57567;SDS011;43403;51.948;5.922;2023-04-03T03:02:07;5.32;;;1.75;;
57567;SDS011;43403;51.948;5.922;2023-04-03T03:04:33;5.10;;;1.60;;
57567;SDS011;43403;51.948;5.922;2023-04-03T03:07:00;5.07;;;1.70;;
57567;SDS011;43403;51.948;5.922;2023-04-03T03:09:26;6.03;;;1.90;;
57567;SDS011;43403;51.948;5.922;2023-04-03T03:11:53;4.78;;;1.63;;
57567;SDS011;43403;51.948;5.922;2023-04-03T03:14:19;6.07;;;1.77;;
57567;SDS011;43403;51.948;5.922;2023-04-03T03:16:45;3.13;;;1.45;;
57567;SDS011;43403;51.948;5.922;2023-04-03T03:19:11;7.38;;;1.67;;
57567;SDS011;43403;51.948;5.922;2023-04-03T03:21:38;5.47;;;1.55;;
57567;SDS011;43403;51.948;5.922;2023-04-03T03:24:04;5.78;;;1.85;;
57567;SDS011;43403;51.948;5.922;2023-04-03T03:26:31;7.07;;;1.85;;
57567;SDS011;43403;51.948;5.922;2023-04-03T03:28:57;4.45;;;1.60;;
57567;SDS011;43403;51.948;5.922;2023-04-03T03:31:23;4.60;;;1.88;;
57567;SDS011;43403;51.948;5.922;2023-04-03T03:33:50;2.83;;;1.50;;
57567;SDS011;43403;51.948;5.922;2023-04-03T03:36:16;4.45;;;1.35;;
57567;SDS011;43403;51.948;5.922;2023-04-03T03:38:42;4.38;;;1.90;;
57567;SDS011;43403;51.948;5.922;2023-04-03T03:41:10;4.05;;;1.70;;
57567;SDS011;43403;51.948;5.922;2023-04-03T03:43:36;8.32;;;1.92;;
57567;SDS011;43403;51.948;5.922;2023-04-03T03:46:03;5.20;;;1.63;;
57567;SDS011;43403;51.948;5.922;2023-04-03T03:48:29;2.95;;;1.50;;
57567;SDS011;43403;51.948;5.922;2023-04-03T03:50:56;2.72;;;1.50;;
57567;SDS011;43403;51.948;5.922;2023-04-03T03:53:22;5.88;;;1.60;;
57567;SDS011;43403;51.948;5.922;2023-04-03T03:55:48;4.45;;;1.67;;
57567;SDS011;43403;51.948;5.922;2023-04-03T03:58:14;6.88;;;1.90;;
57567;SDS011;43403;51.948;5.922;2023-04-03T04:00:41;7.97;;;2.05;;
57567;SDS011;43403;51.948;5.922;2023-04-03T04:03:07;4.25;;;1.70;;
57567;SDS011;43403;51.948;5.922;2023-04-03T04:05:33;6.47;;;2.05;;
57567;SDS011;43403;51.948;5.922;2023-04-03T04:08:01;5.28;;;1.92;;
57567;SDS011;43403;51.948;5.922;2023-04-03T04:10:27;4.50;;;1.48;;
57567;SDS011;43403;51.948;5.922;2023-04-03T04:12:53;6.15;;;2.08;;
57567;SDS011;43403;51.948;5.922;2023-04-03T04:15:21;8.25;;;1.77;;
57567;SDS011;43403;51.948;5.922;2023-04-03T04:17:48;3.60;;;1.73;;
57567;SDS011;43403;51.948;5.922;2023-04-03T04:20:15;3.53;;;1.60;;
57567;SDS011;43403;51.948;5.922;2023-04-03T04:22:41;7.30;;;1.80;;
57567;SDS011;43403;51.948;5.922;2023-04-03T04:25:08;4.38;;;1.83;;
57567;SDS011;43403;51.948;5.922;2023-04-03T04:27:34;8.45;;;2.53;;
57567;SDS011;43403;51.948;5.922;2023-04-03T04:30:00;6.38;;;1.88;;
57567;SDS011;43403;51.948;5.922;2023-04-03T04:32:27;5.55;;;2.00;;
57567;SDS011;43403;51.948;5.922;2023-04-03T04:34:53;5.38;;;1.70;;
57567;SDS011;43403;51.948;5.922;2023-04-03T04:37:20;5.40;;;1.90;;
57567;SDS011;43403;51.948;5.922;2023-04-03T04:39:46;5.05;;;1.92;;
57567;SDS011;43403;51.948;5.922;2023-04-03T04:42:12;5.18;;;1.75;;
57567;SDS011;43403;51.948;5.922;2023-04-03T04:44:41;5.65;;;1.90;;
57567;SDS011;43403;51.948;5.922;2023-04-03T04:47:08;5.60;;;1.98;;
57567;SDS011;43403;51.948;5.922;2023-04-03T04:49:34;6.03;;;1.90;;
57567;SDS011;43403;51.948;5.922;2023-04-03T04:52:00;6.70;;;1.90;;
57567;SDS011;43403;51.948;5.922;2023-04-03T04:54:29;5.07;;;1.90;;
57567;SDS011;43403;51.948;5.922;2023-04-03T04:56:56;5.53;;;1.83;;
57567;SDS011;43403;51.948;5.922;2023-04-03T04:59:22;4.72;;;1.80;;
57567;SDS011;43403;51.948;5.922;2023-04-03T05:01:49;5.88;;;2.05;;
57567;SDS011;43403;51.948;5.922;2023-04-03T05:04:15;10.00;;;2.00;;
57567;SDS011;43403;51.948;5.922;2023-04-03T05:06:42;7.97;;;2.58;;
57567;SDS011;43403;51.948;5.922;2023-04-03T05:09:08;8.27;;;2.40;;
57567;SDS011;43403;51.948;5.922;2023-04-03T05:11:35;5.40;;;1.88;;
57567;SDS011;43403;51.948;5.922;2023-04-03T05:14:02;5.63;;;2.08;;
57567;SDS011;43403;51.948;5.922;2023-04-03T05:16:31;7.32;;;1.95;;
57567;SDS011;43403;51.948;5.922;2023-04-03T05:18:58;5.32;;;2.28;;
57567;SDS011;43403;51.948;5.922;2023-04-03T05:21:24;4.50;;;1.80;;
57567;SDS011;43403;51.948;5.922;2023-04-03T05:23:52;4.50;;;1.88;;
57567;SDS011;43403;51.948;5.922;2023-04-03T05:26:18;6.15;;;2.08;;
57567;SDS011;43403;51.948;5.922;2023-04-03T05:28:45;3.97;;;1.63;;
57567;SDS011;43403;51.948;5.922;2023-04-03T05:31:11;5.25;;;1.75;;
57567;SDS011;43403;51.948;5.922;2023-04-03T05:33:38;6.78;;;1.92;;
57567;SDS011;43403;51.948;5.922;2023-04-03T05:36:05;7.28;;;1.80;;
57567;SDS011;43403;51.948;5.922;2023-04-03T05:38:32;6.28;;;1.60;;
57567;SDS011;43403;51.948;5.922;2023-04-03T05:40:58;2.95;;;1.67;;
57567;SDS011;43403;51.948;5.922;2023-04-03T05:43:25;6.38;;;1.83;;
57567;SDS011;43403;51.948;5.922;2023-04-03T05:45:51;7.55;;;3.08;;
57567;SDS011;43403;51.948;5.922;2023-04-03T05:48:18;6.63;;;2.50;;
57567;SDS011;43403;51.948;5.922;2023-04-03T05:50:45;6.53;;;2.20;;
57567;SDS011;43403;51.948;5.922;2023-04-03T05:53:19;7.47;;;2.25;;
57567;SDS011;43403;51.948;5.922;2023-04-03T05:55:46;3.45;;;1.70;;
57567;SDS011;43403;51.948;5.922;2023-04-03T05:58:13;7.18;;;2.05;;
57567;SDS011;43403;51.948;5.922;2023-04-03T06:00:39;6.63;;;1.80;;
57567;SDS011;43403;51.948;5.922;2023-04-03T06:05:41;4.70;;;1.75;;
57567;SDS011;43403;51.948;5.922;2023-04-03T06:08:07;6.28;;;1.85;;
57567;SDS011;43403;51.948;5.922;2023-04-03T06:10:35;5.30;;;1.73;;
57567;SDS011;43403;51.948;5.922;2023-04-03T06:13:02;7.10;;;2.10;;
57567;SDS011;43403;51.948;5.922;2023-04-03T06:15:29;4.47;;;1.70;;
57567;SDS011;43403;51.948;5.922;2023-04-03T06:17:55;6.13;;;2.22;;
57567;SDS011;43403;51.948;5.922;2023-04-03T06:20:22;8.18;;;1.67;;
57567;SDS011;43403;51.948;5.922;2023-04-03T06:22:48;6.38;;;1.88;;
57567;SDS011;43403;51.948;5.922;2023-04-03T06:25:15;5.30;;;1.90;;
57567;SDS011;43403;51.948;5.922;2023-04-03T06:27:43;5.53;;;1.92;;
57567;SDS011;43403;51.948;5.922;2023-04-03T06:30:10;8.60;;;1.75;;
57567;SDS011;43403;51.948;5.922;2023-04-03T06:32:37;6.68;;;2.55;;
57567;SDS011;43403;51.948;5.922;2023-04-03T06:35:04;7.65;;;2.83;;
57567;SDS011;43403;51.948;5.922;2023-04-03T06:37:31;4.90;;;1.70;;
57567;SDS011;43403;51.948;5.922;2023-04-03T06:39:58;6.00;;;2.00;;
57567;SDS011;43403;51.948;5.922;2023-04-03T06:42:26;4.28;;;1.48;;
57567;SDS011;43403;51.948;5.922;2023-04-03T06:44:53;7.32;;;2.00;;
57567;SDS011;43403;51.948;5.922;2023-04-03T06:47:19;8.38;;;2.25;;
57567;SDS011;43403;51.948;5.922;2023-04-03T06:49:45;4.30;;;1.70;;
57567;SDS011;43403;51.948;5.922;2023-04-03T06:52:11;5.32;;;1.45;;
57567;SDS011;43403;51.948;5.922;2023-04-03T06:54:39;5.20;;;2.65;;
57567;SDS011;43403;51.948;5.922;2023-04-03T06:57:06;6.35;;;1.45;;
57567;SDS011;43403;51.948;5.922;2023-04-03T06:59:33;9.00;;;2.20;;
57567;SDS011;43403;51.948;5.922;2023-04-03T07:02:00;9.15;;;1.73;;
57567;SDS011;43403;51.948;5.922;2023-04-03T07:04:26;5.95;;;1.85;;
57567;SDS011;43403;51.948;5.922;2023-04-03T07:06:53;6.22;;;1.77;;
57567;SDS011;43403;51.948;5.922;2023-04-03T07:09:19;6.00;;;1.70;;
57567;SDS011;43403;51.948;5.922;2023-04-03T07:11:46;9.93;;;2.08;;
57567;SDS011;43403;51.948;5.922;2023-04-03T07:14:12;2.97;;;1.70;;
57567;SDS011;43403;51.948;5.922;2023-04-03T07:16:38;5.40;;;1.52;;
57567;SDS011;43403;51.948;5.922;2023-04-03T07:19:07;7.43;;;1.67;;
57567;SDS011;43403;51.948;5.922;2023-04-03T07:21:35;7.50;;;1.67;;
57567;SDS011;43403;51.948;5.922;2023-04-03T07:24:01;8.50;;;2.00;;
57567;SDS011;43403;51.948;5.922;2023-04-03T07:26:27;4.97;;;1.67;;
57567;SDS011;43403;51.948;5.922;2023-04-03T07:28:54;7.18;;;2.13;;
57567;SDS011;43403;51.948;5.922;2023-04-03T07:31:20;5.28;;;1.73;;
57567;SDS011;43403;51.948;5.922;2023-04-03T07:33:47;4.07;;;1.45;;
57567;SDS011;43403;51.948;5.922;2023-04-03T07:36:14;4.82;;;1.50;;
57567;SDS011;43403;51.948;5.922;2023-04-03T07:43:56;3.20;;;1.40;;
57567;SDS011;43403;51.948;5.922;2023-04-03T07:46:23;8.25;;;1.92;;
57567;SDS011;43403;51.948;5.922;2023-04-03T07:48:49;4.85;;;1.70;;
57567;SDS011;43403;51.948;5.922;2023-04-03T07:51:16;5.80;;;1.73;;
57567;SDS011;43403;51.948;5.922;2023-04-03T07:53:42;3.55;;;1.40;;
57567;SDS011;43403;51.948;5.922;2023-04-03T07:56:09;6.70;;;1.70;;
57567;SDS011;43403;51.948;5.922;2023-04-03T07:58:35;5.70;;;1.60;;
57567;SDS011;43403;51.948;5.922;2023-04-03T08:01:03;5.68;;;1.50;;
57567;SDS011;43403;51.948;5.922;2023-04-03T08:03:29;2.45;;;1.20;;
57567;SDS011;43403;51.948;5.922;2023-04-03T08:06:00;5.80;;;1.25;;
57567;SDS011;43403;51.948;5.922;2023-04-03T08:08:27;3.25;;;1.10;;
57567;SDS011;43403;51.948;5.922;2023-04-03T08:10:57;2.55;;;1.40;;
57567;SDS011;43403;51.948;5.922;2023-04-03T08:13:23;4.38;;;1.10;;
57567;SDS011;43403;51.948;5.922;2023-04-03T08:15:50;5.35;;;0.95;;
57567;SDS011;43403;51.948;5.922;2023-04-03T08:18:17;4.85;;;1.05;;
57567;SDS011;43403;51.948;5.922;2023-04-03T08:20:44;1.55;;;0.90;;
57567;SDS011;43403;51.948;5.922;2023-04-03T08:23:11;5.15;;;1.10;;
57567;SDS011;43403;51.948;5.922;2023-04-03T08:25:38;5.70;;;1.27;;
57567;SDS011;43403;51.948;5.922;2023-04-03T08:28:04;4.95;;;1.25;;
57567;SDS011;43403;51.948;5.922;2023-04-03T08:30:31;5.72;;;1.40;;
57567;SDS011;43403;51.948;5.922;2023-04-03T08:32:57;3.60;;;1.35;;
57567;SDS011;43403;51.948;5.922;2023-04-03T08:35:26;2.67;;;1.25;;
57567;SDS011;43403;51.948;5.922;2023-04-03T08:45:44;4.50;;;1.10;;
57567;SDS011;43403;51.948;5.922;2023-04-03T08:48:15;3.08;;;1.20;;
57567;SDS011;43403;51.948;5.922;2023-04-03T08:50:46;2.17;;;0.75;;
57567;SDS011;43403;51.948;5.922;2023-04-03T08:53:24;3.83;;;0.90;;
57567;SDS011;43403;51.948;5.922;2023-04-03T08:55:52;1.38;;;0.82;;
57567;SDS011;43403;51.948;5.922;2023-04-03T08:58:20;1.45;;;0.75;;
57567;SDS011;43403;51.948;5.922;2023-04-03T09:00:48;3.37;;;1.27;;
57567;SDS011;43403;51.948;5.922;2023-04-03T09:03:17;2.97;;;0.90;;
57567;SDS011;43403;51.948;5.922;2023-04-03T09:10:41;4.25;;;0.80;;
57567;SDS011;43403;51.948;5.922;2023-04-03T09:13:11;2.40;;;0.90;;
57567;SDS011;43403;51.948;5.922;2023-04-03T09:15:39;2.05;;;0.98;;
57567;SDS011;43403;51.948;5.922;2023-04-03T09:18:15;2.90;;;0.80;;
57567;SDS011;43403;51.948;5.922;2023-04-03T09:23:18;3.30;;;0.90;;
57567;SDS011;43403;51.948;5.922;2023-04-03T09:25:45;4.40;;;0.70;;
57567;SDS011;43403;51.948;5.922;2023-04-03T09:28:12;1.00;;;0.65;;
57567;SDS011;43403;51.948;5.922;2023-04-03T09:30:38;4.80;;;1.15;;
57567;SDS011;43403;51.948;5.922;2023-04-03T09:33:05;1.63;;;0.60;;
57567;SDS011;43403;51.948;5.922;2023-04-03T09:35:34;2.92;;;0.90;;
57567;SDS011;43403;51.948;5.922;2023-04-03T09:40:41;1.17;;;0.77;;
57567;SDS011;43403;51.948;5.922;2023-04-03T09:45:43;3.33;;;0.60;;
57567;SDS011;43403;51.948;5.922;2023-04-03T09:53:34;2.22;;;0.70;;
57567;SDS011;43403;51.948;5.922;2023-04-03T09:56:03;1.27;;;0.63;;
57567;SDS011;43403;51.948;5.922;2023-04-03T09:58:39;0.70;;;0.50;;
57567;SDS011;43403;51.948;5.922;2023-04-03T10:06:32;0.95;;;0.50;;
57567;SDS011;43403;51.948;5.922;2023-04-03T10:08:59;2.13;;;0.70;;
57567;SDS011;43403;51.948;5.922;2023-04-03T10:11:27;1.75;;;0.60;;
57567;SDS011;43403;51.948;5.922;2023-04-03T10:13:57;2.25;;;0.70;;
57567;SDS011;43403;51.948;5.922;2023-04-03T10:16:46;0.90;;;0.80;;
57567;SDS011;43403;51.948;5.922;2023-04-03T10:19:24;3.03;;;0.65;;
57567;SDS011;43403;51.948;5.922;2023-04-03T10:22:00;1.00;;;0.63;;
57567;SDS011;43403;51.948;5.922;2023-04-03T10:24:34;1.35;;;0.80;;
57567;SDS011;43403;51.948;5.922;2023-04-03T10:27:06;1.23;;;0.70;;
57567;SDS011;43403;51.948;5.922;2023-04-03T10:34:40;1.05;;;0.57;;
57567;SDS011;43403;51.948;5.922;2023-04-03T10:37:25;2.22;;;0.95;;
57567;SDS011;43403;51.948;5.922;2023-04-03T10:39:59;1.17;;;0.68;;
57567;SDS011;43403;51.948;5.922;2023-04-03T10:45:01;2.00;;;1.15;;
57567;SDS011;43403;51.948;5.922;2023-04-03T10:47:40;1.90;;;0.70;;
57567;SDS011;43403;51.948;5.922;2023-04-03T10:57:39;1.23;;;0.70;;
57567;SDS011;43403;51.948;5.922;2023-04-03T11:00:13;3.50;;;0.70;;
57567;SDS011;43403;51.948;5.922;2023-04-03T11:02:51;0.93;;;0.52;;
57567;SDS011;43403;51.948;5.922;2023-04-03T11:05:22;2.42;;;0.95;;
57567;SDS011;43403;51.948;5.922;2023-04-03T11:07:52;2.95;;;0.90;;
57567;SDS011;43403;51.948;5.922;2023-04-03T11:12:59;1.70;;;0.73;;
57567;SDS011;43403;51.948;5.922;2023-04-03T11:15:29;2.28;;;0.82;;
57567;SDS011;43403;51.948;5.922;2023-04-03T11:18:04;2.33;;;0.80;;
57567;SDS011;43403;51.948;5.922;2023-04-03T11:20:35;2.28;;;0.82;;
57567;SDS011;43403;51.948;5.922;2023-04-03T11:23:25;2.55;;;0.70;;
57567;SDS011;43403;51.948;5.922;2023-04-03T11:26:10;1.45;;;0.73;;
57567;SDS011;43403;51.948;5.922;2023-04-03T11:28:38;1.60;;;0.70;;
57567;SDS011;43403;51.948;5.922;2023-04-03T11:36:24;1.98;;;0.80;;
57567;SDS011;43403;51.948;5.922;2023-04-03T11:38:57;3.33;;;0.75;;
57567;SDS011;43403;51.948;5.922;2023-04-03T11:41:29;3.63;;;0.80;;
57567;SDS011;43403;51.948;5.922;2023-04-03T11:43:57;1.52;;;0.75;;
57567;SDS011;43403;51.948;5.922;2023-04-03T11:51:55;2.55;;;1.05;;
57567;SDS011;43403;51.948;5.922;2023-04-03T11:57:22;2.10;;;0.70;;
57567;SDS011;43403;51.948;5.922;2023-04-03T12:02:54;2.42;;;1.15;;
57567;SDS011;43403;51.948;5.922;2023-04-03T12:05:29;3.30;;;0.80;;
57567;SDS011;43403;51.948;5.922;2023-04-03T12:13:41;2.22;;;0.98;;
57567;SDS011;43403;51.948;5.922;2023-04-03T12:21:23;2.70;;;0.93;;
57567;SDS011;43403;51.948;5.922;2023-04-03T12:26:24;1.50;;;0.82;;
57567;SDS011;43403;51.948;5.922;2023-04-03T12:29:10;1.60;;;0.95;;
57567;SDS011;43403;51.948;5.922;2023-04-03T12:31:46;5.60;;;1.23;;
57567;SDS011;43403;51.948;5.922;2023-04-03T12:34:17;3.78;;;1.10;;
57567;SDS011;43403;51.948;5.922;2023-04-03T12:36:48;3.50;;;0.80;;
57567;SDS011;43403;51.948;5.922;2023-04-03T12:44:56;3.63;;;1.30;;
57567;SDS011;43403;51.948;5.922;2023-04-03T12:49:54;2.45;;;0.80;;
57567;SDS011;43403;51.948;5.922;2023-04-03T12:54:54;3.45;;;1.10;;
57567;SDS011;43403;51.948;5.922;2023-04-03T12:57:22;3.85;;;0.95;;
57567;SDS011;43403;51.948;5.922;2023-04-03T12:59:50;3.85;;;1.20;;
57567;SDS011;43403;51.948;5.922;2023-04-03T13:02:21;3.60;;;1.42;;
57567;SDS011;43403;51.948;5.922;2023-04-03T13:04:50;3.15;;;1.10;;
57567;SDS011;43403;51.948;5.922;2023-04-03T13:07:21;4.78;;;0.88;;
57567;SDS011;43403;51.948;5.922;2023-04-03T13:10:01;2.97;;;1.15;;
57567;SDS011;43403;51.948;5.922;2023-04-03T13:12:28;3.83;;;1.00;;
57567;SDS011;43403;51.948;5.922;2023-04-03T13:14:58;2.55;;;1.08;;
57567;SDS011;43403;51.948;5.922;2023-04-03T13:17:25;2.22;;;0.90;;
57567;SDS011;43403;51.948;5.922;2023-04-03T13:19:52;3.80;;;0.90;;
57567;SDS011;43403;51.948;5.922;2023-04-03T13:22:35;4.43;;;1.10;;
57567;SDS011;43403;51.948;5.922;2023-04-03T13:25:06;4.25;;;1.20;;
57567;SDS011;43403;51.948;5.922;2023-04-03T13:27:33;6.50;;;1.38;;
57567;SDS011;43403;51.948;5.922;2023-04-03T13:30:00;3.55;;;1.70;;
57567;SDS011;43403;51.948;5.922;2023-04-03T13:32:28;3.08;;;1.10;;
57567;SDS011;43403;51.948;5.922;2023-04-03T13:34:55;2.47;;;1.10;;
57567;SDS011;43403;51.948;5.922;2023-04-03T13:37:29;2.97;;;1.20;;
57567;SDS011;43403;51.948;5.922;2023-04-03T13:39:56;4.43;;;1.10;;
57567;SDS011;43403;51.948;5.922;2023-04-03T13:42:30;3.22;;;1.30;;
57567;SDS011;43403;51.948;5.922;2023-04-03T13:45:11;3.10;;;1.10;;
57567;SDS011;43403;51.948;5.922;2023-04-03T13:47:42;1.63;;;0.82;;
57567;SDS011;43403;51.948;5.922;2023-04-03T13:50:14;2.70;;;1.10;;
57567;SDS011;43403;51.948;5.922;2023-04-03T13:52:43;3.25;;;1.10;;
57567;SDS011;43403;51.948;5.922;2023-04-03T13:55:15;5.72;;;1.30;;
57567;SDS011;43403;51.948;5.922;2023-04-03T13:57:52;4.28;;;1.10;;
57567;SDS011;43403;51.948;5.922;2023-04-03T14:00:30;5.70;;;1.50;;
57567;SDS011;43403;51.948;5.922;2023-04-03T14:02:56;5.70;;;1.23;;
57567;SDS011;43403;51.948;5.922;2023-04-03T14:05:23;3.35;;;1.10;;
57567;SDS011;43403;51.948;5.922;2023-04-03T14:07:52;3.30;;;1.10;;
57567;SDS011;43403;51.948;5.922;2023-04-03T14:10:19;4.00;;;1.30;;
57567;SDS011;43403;51.948;5.922;2023-04-03T14:12:45;3.47;;;1.52;;
57567;SDS011;43403;51.948;5.922;2023-04-03T14:15:17;3.63;;;1.05;;
57567;SDS011;43403;51.948;5.922;2023-04-03T14:17:44;2.78;;;1.10;;
57567;SDS011;43403;51.948;5.922;2023-04-03T14:20:16;2.22;;;1.30;;
57567;SDS011;43403;51.948;5.922;2023-04-03T14:22:42;2.17;;;1.08;;
57567;SDS011;43403;51.948;5.922;2023-04-03T14:25:09;2.53;;;1.00;;
57567;SDS011;43403;51.948;5.922;2023-04-03T14:27:37;2.08;;;1.13;;
57567;SDS011;43403;51.948;5.922;2023-04-03T14:30:06;2.88;;;1.20;;
57567;SDS011;43403;51.948;5.922;2023-04-03T14:32:33;4.03;;;1.48;;
57567;SDS011;43403;51.948;5.922;2023-04-03T14:35:14;4.20;;;1.60;;
57567;SDS011;43403;51.948;5.922;2023-04-03T14:37:41;4.53;;;1.55;;
57567;SDS011;43403;51.948;5.922;2023-04-03T14:40:08;2.15;;;1.27;;
57567;SDS011;43403;51.948;5.922;2023-04-03T14:42:36;4.60;;;1.50;;
57567;SDS011;43403;51.948;5.922;2023-04-03T14:45:04;3.28;;;1.38;;
57567;SDS011;43403;51.948;5.922;2023-04-03T14:47:31;3.53;;;1.42;;
57567;SDS011;43403;51.948;5.922;2023-04-03T14:50:01;4.03;;;1.33;;
57567;SDS011;43403;51.948;5.922;2023-04-03T14:52:30;3.75;;;1.50;;
57567;SDS011;43403;51.948;5.922;2023-04-03T14:57:25;4.05;;;1.25;;
57567;SDS011;43403;51.948;5.922;2023-04-03T14:59:52;4.22;;;1.38;;
57567;SDS011;43403;51.948;5.922;2023-04-03T15:02:29;3.35;;;1.38;;
57567;SDS011;43403;51.948;5.922;2023-04-03T15:04:57;3.60;;;1.25;;
57567;SDS011;43403;51.948;5.922;2023-04-03T15:07:24;5.53;;;1.30;;
57567;SDS011;43403;51.948;5.922;2023-04-03T15:09:51;2.95;;;1.23;;
57567;SDS011;43403;51.948;5.922;2023-04-03T15:12:17;2.33;;;1.20;;
57567;SDS011;43403;51.948;5.922;2023-04-03T15:14:44;5.25;;;1.65;;
57567;SDS011;43403;51.948;5.922;2023-04-03T15:17:22;2.95;;;1.10;;
57567;SDS011;43403;51.948;5.922;2023-04-03T15:19:49;4.43;;;1.40;;
57567;SDS011;43403;51.948;5.922;2023-04-03T15:22:18;3.50;;;1.45;;
57567;SDS011;43403;51.948;5.922;2023-04-03T15:24:45;4.65;;;1.77;;
57567;SDS011;43403;51.948;5.922;2023-04-03T15:27:12;3.65;;;1.20;;
57567;SDS011;43403;51.948;5.922;2023-04-03T15:29:39;4.65;;;1.20;;
57567;SDS011;43403;51.948;5.922;2023-04-03T15:32:07;5.03;;;1.30;;
57567;SDS011;43403;51.948;5.922;2023-04-03T15:34:35;3.92;;;1.30;;
57567;SDS011;43403;51.948;5.922;2023-04-03T15:37:02;3.67;;;1.45;;
57567;SDS011;43403;51.948;5.922;2023-04-03T15:39:28;4.30;;;1.52;;
57567;SDS011;43403;51.948;5.922;2023-04-03T15:41:55;4.88;;;1.65;;
57567;SDS011;43403;51.948;5.922;2023-04-03T15:44:22;2.13;;;1.10;;
57567;SDS011;43403;51.948;5.922;2023-04-03T15:46:49;3.33;;;1.50;;
57567;SDS011;43403;51.948;5.922;2023-04-03T15:49:18;6.10;;;1.30;;
57567;SDS011;43403;51.948;5.922;2023-04-03T15:51:44;4.75;;;1.48;;
57567;SDS011;43403;51.948;5.922;2023-04-03T15:54:11;4.20;;;1.38;;
57567;SDS011;43403;51.948;5.922;2023-04-03T15:56:37;4.03;;;1.10;;
57567;SDS011;43403;51.948;5.922;2023-04-03T15:59:04;4.65;;;1.30;;
57567;SDS011;43403;51.948;5.922;2023-04-03T16:01:30;5.55;;;2.08;;
57567;SDS011;43403;51.948;5.922;2023-04-03T16:03:57;7.22;;;2.10;;
57567;SDS011;43403;51.948;5.922;2023-04-03T16:06:24;3.88;;;1.45;;
57567;SDS011;43403;51.948;5.922;2023-04-03T16:08:51;4.40;;;1.48;;
57567;SDS011;43403;51.948;5.922;2023-04-03T16:11:17;5.90;;;1.17;;
57567;SDS011;43403;51.948;5.922;2023-04-03T16:13:43;5.57;;;1.55;;
57567;SDS011;43403;51.948;5.922;2023-04-03T16:16:10;3.88;;;1.40;;
57567;SDS011;43403;51.948;5.922;2023-04-03T16:18:37;3.45;;;1.42;;
57567;SDS011;43403;51.948;5.922;2023-04-03T16:21:03;5.05;;;1.35;;
57567;SDS011;43403;51.948;5.922;2023-04-03T16:23:29;3.10;;;1.30;;
57567;SDS011;43403;51.948;5.922;2023-04-03T16:25:56;4.30;;;1.55;;
57567;SDS011;43403;51.948;5.922;2023-04-03T16:28:23;3.42;;;1.30;;
57567;SDS011;43403;51.948;5.922;2023-04-03T16:30:49;5.15;;;1.67;;
57567;SDS011;43403;51.948;5.922;2023-04-03T16:33:16;5.55;;;1.58;;
57567;SDS011;43403;51.948;5.922;2023-04-03T16:35:42;6.03;;;1.83;;
57567;SDS011;43403;51.948;5.922;2023-04-03T16:38:09;5.28;;;1.73;;
57567;SDS011;43403;51.948;5.922;2023-04-03T16:40:36;5.28;;;1.40;;